• Join FlightAware (Why Join?)
  • Login
  • US Flag GB Flag 
18:16 EDT


 

Airport Tracker/Info


-or-


 

Live Flight TrackerFlight Track Log ✈ N523JM ✈ 10-Oct-2013 ✈ KPBI - KOSU

Flight Track Log - Related Links

Times and Time Zones

All times are in EDT time to prevent confusion due to time zone crossing. See the N523JM flight status page for this flight to view local times or setup timezone preferences in your user account.

Time Position Orientation Groundspeed Altitude Reporting Facility
EDT Latitude Longitude Course Direction KTS MPH feet Rate Location/Type
16:18 26.7222 -79.9569 331° Northwest 261 300 6,500  Level Miami Center
16:19 26.7631 -80.0022 315° West 269 310 9,100 2,280 Climbing Miami Center
16:20 26.7861 -80.0936 286° West 264 304 11,100 1,860 Climbing Miami Center
16:21 26.8111 -80.1828 287° West 288 331 12,900 1,440 Climbing Miami Center
16:22 27.3544 -80.2250 331° Northwest  Level Estimated
16:22 26.8322 -80.2717 285° West 321 369 14,000  Level Miami Center
16:23 26.8608 -80.3797 287° West 350 403 14,800 1,260 Climbing Miami Center
16:24 26.9617 -80.4411 332° Northwest 375 432 16,600 1,500 Climbing Miami Center
16:25 27.0464 -80.4717 342° North 382 440 17,900 1,440 Climbing Miami Center
16:26 27.1664 -80.5219 340° North 400 460 19,500 1,500 Climbing Miami Center
16:27 27.2781 -80.5631 342° North 411 473 21,000 1,500 Climbing Miami Center
16:28 27.3897 -80.6064 341° North 418 481 22,600 1,560 Climbing Miami Center
16:29 27.4992 -80.6472 342° North 418 481 24,200 1,500 Climbing Miami Center
16:30 27.6108 -80.6883 342° North 418 481 25,700 1,500 Climbing Miami Center
16:31 27.7183 -80.7319 340° North 418 481 27,300 1,440 Climbing Miami Center
16:32 27.8297 -80.7756 341° North 418 481 28,600 1,200 Climbing Miami Center
16:33 27.9414 -80.8172 342° North 423 487 29,800 1,140 Climbing Miami Center
16:34 28.0569 -80.8611 341° North 423 487 31,000 1,200 Climbing Miami Center
16:35 28.1686 -80.9050 341° North 423 487 32,200 1,200 Climbing Miami Center
16:37 28.4136 -80.9975 342° North 418 481 34,900 1,200 Climbing Jacksonville Center
16:38 28.5122 -81.0403 339° North 431 496 36,100 1,200 Climbing Jacksonville Center
16:39 28.6150 -81.0811 341° North 411 473 37,300 1,080 Climbing Jacksonville Center
16:40 28.7200 -81.1242 340° North 399 459 38,300 840 Climbing Jacksonville Center
16:41 28.8247 -81.1483 349° North 386 444 39,000 300 Climbing Jacksonville Center
16:42 28.9314 -81.1725 349° North 380 437 39,000  Level Jacksonville Center
16:44 29.1556 -81.2258 348° North 397 457 39,000  Level Jacksonville Center
16:45 29.2706 -81.2547 348° North 409 471 39,000  Level Jacksonville Center
16:46 29.3900 -81.2789 350° North 423 487 39,000  Level Jacksonville Center
16:47 29.5031 -81.3128 345° North 428 493 39,000  Level Jacksonville Center
16:48 29.6225 -81.3419 348° North 428 493 39,000  Level Jacksonville Center
16:49 29.7439 -81.3711 348° North 433 498 39,000  Level Jacksonville Center
16:50 29.8611 -81.4006 348° North 433 498 39,000  Level Jacksonville Center
16:51 29.9825 -81.4322 347° North 433 498 39,000  Level Jacksonville Center
16:52 30.1019 -81.4617 348° North 433 498 39,000  Level Jacksonville Center
16:53 30.2192 -81.4911 348° North 433 498 39,000  Level Jacksonville Center
16:54 30.3406 -81.5206 348° North 433 498 39,000  Level Jacksonville Center
16:55 30.4725 -81.5572 347° North 433 498 39,000  Level Jacksonville Center
16:56 30.5919 -81.5894 347° North 433 498 39,000  Level Jacksonville Center
16:57 30.7111 -81.6192 348° North 433 498 39,000  Level Jacksonville Center
16:58 30.8283 -81.6514 347° North 433 498 39,000  Level Jacksonville Center
16:59 30.9478 -81.6839 347° North 433 498 39,000  Level Jacksonville Center
17:00 31.0650 -81.7164 347° North 433 498 39,000  Level Jacksonville Center
17:01 31.1822 -81.7464 348° North 425 489 39,000  Level Jacksonville Center
17:02 31.3033 -81.7572 356° North 432 497 39,000  Level Jacksonville Center
17:04 31.5253 -81.7636 359° North 440 506 39,000  Level Atlanta Center
17:05 31.6486 -81.7703 357° North 440 506 39,000  Level Atlanta Center
17:06 31.7697 -81.7769 357° North 440 506 39,000  Level Atlanta Center
17:07 31.8928 -81.7811 358° North 440 506 39,000  Level Atlanta Center
17:08 32.0119 -81.7878 357° North 440 506 39,000  Level Atlanta Center
17:09 32.1353 -81.7944 357° North 440 506 39,000  Level Atlanta Center
17:10 32.2564 -81.7939 360° North 440 506 39,000  Level Atlanta Center
17:11 32.3756 -81.8033 356° North 440 506 39,000  Level Atlanta Center
17:12 32.4964 -81.8053 359° North 440 506 39,000  Level Atlanta Center
17:13 32.6072 -81.8147 356° North 440 506 39,000  Level Atlanta Center
17:14 32.7283 -81.8189 358° North 440 506 39,000  Level Atlanta Center
17:15 32.8517 -81.8233 358° North 440 506 39,000  Level Atlanta Center
17:16 32.9728 -81.8303 357° North 440 506 39,000  Level Atlanta Center
17:17 33.0961 -81.8344 358° North 440 506 39,000  Level Atlanta Center
17:18 33.2194 -81.8414 357° North 440 506 39,000  Level Atlanta Center
17:19 33.3383 -81.8458 358° North 440 506 39,000  Level Atlanta Center
17:20 33.4639 -81.8525 357° North 440 506 39,000  Level Atlanta Center
17:21 33.5869 -81.8569 358° North 440 506 39,000  Level Atlanta Center
17:22 33.7103 -81.8636 357° North 440 506 39,000  Level Atlanta Center
17:23 33.8336 -81.8706 357° North 440 506 39,000  Level Atlanta Center
17:24 33.9692 -81.8747 359° North 440 506 39,000  Level Atlanta Center
17:25 34.0906 -81.8817 357° North 440 506 39,000  Level Atlanta Center
17:26 34.2136 -81.8886 357° North 440 506 39,000  Level Atlanta Center
17:27 34.3369 -81.8931 358° North 440 506 39,000  Level Atlanta Center
17:28 34.4600 -81.8972 358° North 440 506 39,000  Level Atlanta Center
17:29 34.5814 -81.9069 356° North 440 506 39,000  Level Atlanta Center
17:30 34.7067 -81.9139 357° North 440 506 39,000  Level Atlanta Center
17:31 34.8153 -81.9211 357° North 440 506 39,000  Level Atlanta Center
17:32 34.9364 -81.9256 358° North 445 512 39,000  Level Atlanta Center
17:33 35.0617 -81.9353 356° North 445 512 39,000  Level Atlanta Center
17:34 35.1831 -81.9500 354° North 440 506 39,000  Level Atlanta Center
17:35 35.3086 -81.9644 355° North 446 513 39,000  Level Atlanta Center
17:36 35.4444 -81.9814 354° North 446 513 39,000  Level Atlanta Center
17:37 35.5658 -81.9989 353° North 446 513 39,000  Level Atlanta Center
17:38 35.6931 -82.0111 356° North 446 513 39,000  Level Atlanta Center
17:39 35.8164 -82.0258 354° North 440 506 39,000  Level Atlanta Center
17:40 35.9397 -82.0408 354° North 445 512 39,000  Level Atlanta Center
17:41 36.0653 -82.0558 354° North 445 512 39,000  Level Atlanta Center
17:42 36.1800 -82.0658 356° North 445 512 39,000  Level Atlanta Center
17:43 36.2972 -82.0808 354° North 436 502 39,000  Level Atlanta Center
17:44 36.4225 -82.0986 353° North 445 512 39,000  Level Atlanta Center
17:46 36.6533 -82.1272 354° North 453 521 39,000  Level Indianapolis Center
17:47 36.7800 -82.1425 354° North 458 527 39,000  Level Indianapolis Center
17:48 36.9058 -82.1578 354° North 457 526 39,000  Level Indianapolis Center
17:49 37.0511 -82.1778 354° North 453 521 39,000 -240 Level Indianapolis Center
17:50 37.1775 -82.1936 354° North 456 525 38,600 -720 Descending Indianapolis Center
17:51 37.3044 -82.2092 354° North 458 527 37,600 -960 Descending Indianapolis Center
17:52 37.4325 -82.2278 353° North 462 532 36,700 -1,020 Descending Indianapolis Center
17:53 37.5817 -82.2456 355° North 460 529 35,500 -1,020 Descending Indianapolis Center
17:54 37.7117 -82.2628 354° North 464 534 34,600 -960 Descending Indianapolis Center
17:55 37.8397 -82.2794 354° North 462 532 33,600 -1,080 Descending Indianapolis Center
17:56 37.9681 -82.2953 354° North 463 533 32,500 -1,320 Descending Indianapolis Center
17:57 38.1106 -82.3142 354° North 469 540 30,900 -1,500 Descending Indianapolis Center
17:58 38.2400 -82.3417 351° North 468 539 29,400 -1,680 Descending Indianapolis Center
17:59 38.3639 -82.3919 342° North 467 537 27,500 -1,860 Descending Indianapolis Center
18:00 38.4906 -82.4397 344° North 471 542 25,600 -1,560 Descending Indianapolis Center
18:01 38.6186 -82.4919 342° North 458 527 24,300 -780 Descending Indianapolis Center
18:02 38.7283 -82.5333 344° North 434 499 24,000 -840 Descending Indianapolis Center
18:03 38.8433 -82.5800 342° North 431 496 22,600 -1,800 Descending Indianapolis Center
18:04 38.9814 -82.6339 343° North 430 495 20,300 -2,280 Descending Indianapolis Center
18:05 39.0950 -82.6783 343° North 425 489 17,900 -2,160 Descending Indianapolis Center
18:06 39.1958 -82.7175 343° North 421 484 15,900 -2,400 Descending Indianapolis Center
18:07 39.2775 -82.7519 342° North 416 479 14,100 -2,820 Descending Indianapolis Center
18:07 39.3281 -82.7697 345° North 416 479 13,000 -2,160 Descending Indianapolis Center
18:07 39.3281 -82.7733 270° West 413 475 13,000 -1,560 Level Indianapolis Center
18:08 39.4336 -82.8122 344° North 402 463 11,400 -1,680 Descending Indianapolis Center
18:08 39.4414 -82.8183 329° Northwest 398 458 11,300 -480 Descending Indianapolis Center
18:09 39.5267 -82.8725 334° Northwest 365 420 11,000 -300 Descending Indianapolis Center
18:09 39.5261 -82.8706 110° East 370 426 11,000 -180 Level Indianapolis Center
18:10 39.6117 -82.9294 332° Northwest 293 337 10,800 -120 Descending Indianapolis Center
18:10 39.6064 -82.9247 145° Southeast 328 377 10,900 -1,500 Climbing Indianapolis Center
18:11 39.6667 -82.9681 331° Northwest 245 282 9,600 -1,380 Descending Indianapolis Center
18:11 39.6703 -82.9672 10° North 265 305 9,500 -1,920 Descending Indianapolis Center
18:12 39.7281 -83.0078 332° Northwest 247 284 7,700 -2,340 Descending Indianapolis Center
18:12 39.7453 -83.0189 334° Northwest 255 293 7,100 -2,400 Descending Indianapolis Center
18:13 39.7992 -83.0328 349° North 273 314 5,300 -2,340 Descending Indianapolis Center
18:14 39.8181 -83.0297 North 271 312 4,700 -1,320 Descending Indianapolis Center
18:14 39.8717 -83.0228 North 261 300 4,000 -720 Descending Indianapolis Center
18:15 39.8886 -83.0183 11° North 265 305 4,000 -360 Level Indianapolis Center
18:15 39.9217 -83.0061 16° North 177 204 3,700 -720 Descending Indianapolis Center
18:16 39.9378 -83.0014 13° North 214 246 3,300 -720 Descending Indianapolis Center
18:16 39.9703 -83.0006 North 165 190 3,000 -420 Descending Indianapolis Center
18:17 39.9839 -82.9983 North 185 213 2,900 -240 Descending Indianapolis Center
18:17 40.0189 -83.0000 358° North 171 197 2,800 -300 Descending Indianapolis Center
18:18 40.0414 -83.0000 360° North 175 201 2,600 -540 Descending Indianapolis Center
18:18 40.0611 -82.9958 North 154 177 2,300 -720 Descending Indianapolis Center
18:19 40.0789 -83.0042 340° North 162 186 1,900 -840 Descending Indianapolis Center
18:19 40.0783 -83.0369 269° West 141 162 1,400 -720 Descending Indianapolis Center
18:20 40.0778 -83.0572 268° West 148 170 1,200 -540 Descending Indianapolis Center
18:22 40.0667 -83.0667 339° North  Level FlightAware Approximate